sensor_id;sensor_type;location;lat;lon;timestamp;P1;durP1;ratioP1;P2;durP2;ratioP2
41943;SDS011;27636;52.610;13.244;2023-05-07T00:00:55;22.08;;;9.52;;
41943;SDS011;27636;52.610;13.244;2023-05-07T00:06:00;17.92;;;9.43;;
41943;SDS011;27636;52.610;13.244;2023-05-07T00:11:04;20.48;;;9.32;;
41943;SDS011;27636;52.610;13.244;2023-05-07T00:16:08;21.45;;;9.32;;
41943;SDS011;27636;52.610;13.244;2023-05-07T00:21:13;18.83;;;9.07;;
41943;SDS011;27636;52.610;13.244;2023-05-07T00:31:22;19.25;;;9.25;;
41943;SDS011;27636;52.610;13.244;2023-05-07T00:36:27;19.60;;;9.25;;
41943;SDS011;27636;52.610;13.244;2023-05-07T00:41:31;22.90;;;9.77;;
41943;SDS011;27636;52.610;13.244;2023-05-07T00:46:35;18.27;;;9.25;;
41943;SDS011;27636;52.610;13.244;2023-05-07T00:51:41;22.07;;;9.77;;
41943;SDS011;27636;52.610;13.244;2023-05-07T01:01:48;21.60;;;9.55;;
41943;SDS011;27636;52.610;13.244;2023-05-07T01:06:53;17.70;;;8.52;;
41943;SDS011;27636;52.610;13.244;2023-05-07T01:11:59;20.77;;;10.02;;
41943;SDS011;27636;52.610;13.244;2023-05-07T01:17:04;21.40;;;9.40;;
41943;SDS011;27636;52.610;13.244;2023-05-07T01:22:10;20.67;;;8.75;;
41943;SDS011;27636;52.610;13.244;2023-05-07T01:27:24;14.77;;;8.07;;
41943;SDS011;27636;52.610;13.244;2023-05-07T01:32:29;20.55;;;8.93;;
41943;SDS011;27636;52.610;13.244;2023-05-07T01:37:38;18.27;;;8.90;;
41943;SDS011;27636;52.610;13.244;2023-05-07T01:42:45;15.75;;;8.13;;
41943;SDS011;27636;52.610;13.244;2023-05-07T01:47:51;16.15;;;8.20;;
41943;SDS011;27636;52.610;13.244;2023-05-07T01:52:56;16.88;;;9.10;;
41943;SDS011;27636;52.610;13.244;2023-05-07T01:58:01;16.55;;;8.25;;
41943;SDS011;27636;52.610;13.244;2023-05-07T02:03:04;17.45;;;8.73;;
41943;SDS011;27636;52.610;13.244;2023-05-07T02:08:16;15.23;;;8.15;;
41943;SDS011;27636;52.610;13.244;2023-05-07T02:13:21;18.50;;;7.97;;
41943;SDS011;27636;52.610;13.244;2023-05-07T02:18:25;15.02;;;7.18;;
41943;SDS011;27636;52.610;13.244;2023-05-07T02:23:29;14.98;;;7.38;;
41943;SDS011;27636;52.610;13.244;2023-05-07T02:28:34;16.02;;;7.82;;
41943;SDS011;27636;52.610;13.244;2023-05-07T02:33:40;20.90;;;8.95;;
41943;SDS011;27636;52.610;13.244;2023-05-07T02:38:45;17.45;;;7.75;;
41943;SDS011;27636;52.610;13.244;2023-05-07T02:43:49;16.23;;;7.07;;
41943;SDS011;27636;52.610;13.244;2023-05-07T02:53:57;17.67;;;8.13;;
41943;SDS011;27636;52.610;13.244;2023-05-07T02:59:03;15.82;;;6.85;;
41943;SDS011;27636;52.610;13.244;2023-05-07T03:04:10;27.33;;;8.57;;
41943;SDS011;27636;52.610;13.244;2023-05-07T03:09:14;14.98;;;6.63;;
41943;SDS011;27636;52.610;13.244;2023-05-07T03:14:19;16.00;;;7.07;;
41943;SDS011;27636;52.610;13.244;2023-05-07T03:19:24;14.27;;;7.15;;
41943;SDS011;27636;52.610;13.244;2023-05-07T03:24:28;16.90;;;6.78;;
41943;SDS011;27636;52.610;13.244;2023-05-07T03:29:33;15.30;;;7.10;;
41943;SDS011;27636;52.610;13.244;2023-05-07T03:34:36;12.60;;;6.45;;
41943;SDS011;27636;52.610;13.244;2023-05-07T03:39:40;13.30;;;6.00;;
41943;SDS011;27636;52.610;13.244;2023-05-07T03:44:45;15.43;;;6.75;;
41943;SDS011;27636;52.610;13.244;2023-05-07T03:49:49;15.80;;;7.47;;
41943;SDS011;27636;52.610;13.244;2023-05-07T03:54:59;13.48;;;6.15;;
41943;SDS011;27636;52.610;13.244;2023-05-07T04:00:06;12.10;;;5.40;;
41943;SDS011;27636;52.610;13.244;2023-05-07T04:05:22;16.25;;;6.70;;
41943;SDS011;27636;52.610;13.244;2023-05-07T04:10:30;13.05;;;5.32;;
41943;SDS011;27636;52.610;13.244;2023-05-07T04:15:39;11.20;;;5.38;;
41943;SDS011;27636;52.610;13.244;2023-05-07T04:20:46;13.00;;;6.88;;
41943;SDS011;27636;52.610;13.244;2023-05-07T04:31:04;12.10;;;5.78;;
41943;SDS011;27636;52.610;13.244;2023-05-07T04:36:10;13.73;;;5.45;;
41943;SDS011;27636;52.610;13.244;2023-05-07T04:41:24;14.02;;;6.60;;
41943;SDS011;27636;52.610;13.244;2023-05-07T04:46:30;15.25;;;5.45;;
41943;SDS011;27636;52.610;13.244;2023-05-07T04:51:33;11.68;;;5.78;;
41943;SDS011;27636;52.610;13.244;2023-05-07T04:56:37;12.45;;;6.53;;
41943;SDS011;27636;52.610;13.244;2023-05-07T05:01:42;11.88;;;5.80;;
41943;SDS011;27636;52.610;13.244;2023-05-07T05:06:46;11.43;;;5.20;;
41943;SDS011;27636;52.610;13.244;2023-05-07T05:11:50;9.13;;;5.05;;
41943;SDS011;27636;52.610;13.244;2023-05-07T05:16:55;12.13;;;5.03;;
41943;SDS011;27636;52.610;13.244;2023-05-07T05:27:05;11.45;;;5.53;;
41943;SDS011;27636;52.610;13.244;2023-05-07T05:32:09;10.93;;;5.03;;
41943;SDS011;27636;52.610;13.244;2023-05-07T05:37:13;12.00;;;5.35;;
41943;SDS011;27636;52.610;13.244;2023-05-07T05:42:17;11.85;;;4.82;;
41943;SDS011;27636;52.610;13.244;2023-05-07T05:47:22;10.18;;;4.88;;
41943;SDS011;27636;52.610;13.244;2023-05-07T05:52:29;8.15;;;4.10;;
41943;SDS011;27636;52.610;13.244;2023-05-07T05:57:33;9.20;;;4.68;;
41943;SDS011;27636;52.610;13.244;2023-05-07T06:02:38;8.10;;;3.83;;
41943;SDS011;27636;52.610;13.244;2023-05-07T06:07:43;12.77;;;3.72;;
41943;SDS011;27636;52.610;13.244;2023-05-07T06:12:46;11.93;;;4.90;;
41943;SDS011;27636;52.610;13.244;2023-05-07T06:17:54;11.75;;;4.57;;
41943;SDS011;27636;52.610;13.244;2023-05-07T06:23:00;9.55;;;5.13;;
41943;SDS011;27636;52.610;13.244;2023-05-07T06:28:04;10.80;;;4.80;;
41943;SDS011;27636;52.610;13.244;2023-05-07T06:33:12;7.72;;;3.80;;
41943;SDS011;27636;52.610;13.244;2023-05-07T06:38:17;9.20;;;4.70;;
41943;SDS011;27636;52.610;13.244;2023-05-07T06:43:21;8.98;;;3.65;;
41943;SDS011;27636;52.610;13.244;2023-05-07T06:48:33;9.70;;;4.78;;
41943;SDS011;27636;52.610;13.244;2023-05-07T06:53:40;8.02;;;4.20;;
41943;SDS011;27636;52.610;13.244;2023-05-07T06:58:46;12.85;;;4.30;;
41943;SDS011;27636;52.610;13.244;2023-05-07T07:03:51;7.07;;;3.50;;
41943;SDS011;27636;52.610;13.244;2023-05-07T07:08:56;10.30;;;3.92;;
41943;SDS011;27636;52.610;13.244;2023-05-07T07:14:00;9.57;;;3.92;;
41943;SDS011;27636;52.610;13.244;2023-05-07T07:19:08;11.70;;;4.10;;
41943;SDS011;27636;52.610;13.244;2023-05-07T07:24:12;7.95;;;3.60;;
41943;SDS011;27636;52.610;13.244;2023-05-07T07:29:23;7.97;;;3.85;;
41943;SDS011;27636;52.610;13.244;2023-05-07T07:34:30;7.50;;;3.35;;
41943;SDS011;27636;52.610;13.244;2023-05-07T07:39:36;7.03;;;2.88;;
41943;SDS011;27636;52.610;13.244;2023-05-07T07:44:44;8.60;;;3.05;;
41943;SDS011;27636;52.610;13.244;2023-05-07T07:49:51;6.78;;;2.72;;
41943;SDS011;27636;52.610;13.244;2023-05-07T07:54:54;6.40;;;2.83;;
41943;SDS011;27636;52.610;13.244;2023-05-07T07:59:58;6.72;;;3.08;;
41943;SDS011;27636;52.610;13.244;2023-05-07T08:05:05;7.43;;;3.15;;
41943;SDS011;27636;52.610;13.244;2023-05-07T08:10:10;6.38;;;3.10;;
41943;SDS011;27636;52.610;13.244;2023-05-07T08:15:14;6.15;;;2.47;;
41943;SDS011;27636;52.610;13.244;2023-05-07T08:20:19;5.05;;;2.45;;
41943;SDS011;27636;52.610;13.244;2023-05-07T08:25:23;6.32;;;2.85;;
41943;SDS011;27636;52.610;13.244;2023-05-07T08:30:27;6.65;;;3.38;;
41943;SDS011;27636;52.610;13.244;2023-05-07T08:35:32;5.15;;;2.45;;
41943;SDS011;27636;52.610;13.244;2023-05-07T08:45:44;6.95;;;2.67;;
41943;SDS011;27636;52.610;13.244;2023-05-07T08:50:53;6.05;;;2.20;;
41943;SDS011;27636;52.610;13.244;2023-05-07T08:55:57;6.38;;;2.25;;
41943;SDS011;27636;52.610;13.244;2023-05-07T09:01:07;8.13;;;2.38;;
41943;SDS011;27636;52.610;13.244;2023-05-07T09:06:14;5.78;;;2.35;;
41943;SDS011;27636;52.610;13.244;2023-05-07T09:11:20;5.97;;;2.55;;
41943;SDS011;27636;52.610;13.244;2023-05-07T09:16:27;6.60;;;2.08;;
41943;SDS011;27636;52.610;13.244;2023-05-07T09:21:35;4.90;;;2.22;;
41943;SDS011;27636;52.610;13.244;2023-05-07T09:26:42;6.72;;;2.38;;
41943;SDS011;27636;52.610;13.244;2023-05-07T09:31:47;5.00;;;2.28;;
41943;SDS011;27636;52.610;13.244;2023-05-07T09:36:54;5.15;;;2.33;;
41943;SDS011;27636;52.610;13.244;2023-05-07T09:41:58;6.57;;;2.17;;
41943;SDS011;27636;52.610;13.244;2023-05-07T09:47:10;4.93;;;2.17;;
41943;SDS011;27636;52.610;13.244;2023-05-07T09:52:22;4.88;;;1.90;;
41943;SDS011;27636;52.610;13.244;2023-05-07T09:57:30;7.45;;;2.40;;
41943;SDS011;27636;52.610;13.244;2023-05-07T10:02:39;4.95;;;2.03;;
41943;SDS011;27636;52.610;13.244;2023-05-07T10:07:50;4.95;;;2.17;;
41943;SDS011;27636;52.610;13.244;2023-05-07T10:12:57;5.90;;;2.33;;
41943;SDS011;27636;52.610;13.244;2023-05-07T10:18:08;4.22;;;1.90;;
41943;SDS011;27636;52.610;13.244;2023-05-07T10:23:14;5.40;;;2.15;;
41943;SDS011;27636;52.610;13.244;2023-05-07T10:28:27;8.43;;;2.08;;
41943;SDS011;27636;52.610;13.244;2023-05-07T10:33:33;4.80;;;2.15;;
41943;SDS011;27636;52.610;13.244;2023-05-07T10:38:39;4.70;;;1.70;;
41943;SDS011;27636;52.610;13.244;2023-05-07T10:43:45;4.82;;;1.98;;
41943;SDS011;27636;52.610;13.244;2023-05-07T10:49:10;3.50;;;1.80;;
41943;SDS011;27636;52.610;13.244;2023-05-07T10:54:24;4.45;;;1.90;;
41943;SDS011;27636;52.610;13.244;2023-05-07T10:59:37;3.23;;;1.50;;
41943;SDS011;27636;52.610;13.244;2023-05-07T11:05:18;5.88;;;1.98;;
41943;SDS011;27636;52.610;13.244;2023-05-07T11:16:00;5.18;;;1.85;;
41943;SDS011;27636;52.610;13.244;2023-05-07T11:21:16;5.93;;;1.80;;
41943;SDS011;27636;52.610;13.244;2023-05-07T11:26:47;2.83;;;1.40;;
41943;SDS011;27636;52.610;13.244;2023-05-07T11:31:54;3.35;;;1.45;;
41943;SDS011;27636;52.610;13.244;2023-05-07T11:37:02;4.25;;;1.38;;
41943;SDS011;27636;52.610;13.244;2023-05-07T11:42:29;4.30;;;2.00;;
41943;SDS011;27636;52.610;13.244;2023-05-07T11:47:33;3.97;;;1.85;;
41943;SDS011;27636;52.610;13.244;2023-05-07T11:52:36;2.53;;;1.30;;
41943;SDS011;27636;52.610;13.244;2023-05-07T11:57:43;4.05;;;1.60;;
41943;SDS011;27636;52.610;13.244;2023-05-07T12:02:47;5.43;;;1.73;;
41943;SDS011;27636;52.610;13.244;2023-05-07T12:07:55;5.35;;;1.63;;
41943;SDS011;27636;52.610;13.244;2023-05-07T12:13:00;5.07;;;1.55;;
41943;SDS011;27636;52.610;13.244;2023-05-07T12:18:04;5.72;;;1.48;;
41943;SDS011;27636;52.610;13.244;2023-05-07T12:23:08;4.43;;;1.40;;
41943;SDS011;27636;52.610;13.244;2023-05-07T12:28:13;3.47;;;1.30;;
41943;SDS011;27636;52.610;13.244;2023-05-07T12:33:23;4.80;;;1.77;;
41943;SDS011;27636;52.610;13.244;2023-05-07T12:38:32;3.28;;;1.60;;
41943;SDS011;27636;52.610;13.244;2023-05-07T12:43:42;4.32;;;1.70;;
41943;SDS011;27636;52.610;13.244;2023-05-07T12:48:47;3.20;;;1.40;;
41943;SDS011;27636;52.610;13.244;2023-05-07T12:53:51;5.50;;;2.50;;
41943;SDS011;27636;52.610;13.244;2023-05-07T12:59:00;3.17;;;1.35;;
41943;SDS011;27636;52.610;13.244;2023-05-07T13:04:03;2.25;;;1.20;;
41943;SDS011;27636;52.610;13.244;2023-05-07T13:14:13;6.82;;;1.60;;
41943;SDS011;27636;52.610;13.244;2023-05-07T13:19:16;3.40;;;1.23;;
41943;SDS011;27636;52.610;13.244;2023-05-07T13:24:20;3.08;;;1.08;;
41943;SDS011;27636;52.610;13.244;2023-05-07T13:29:24;5.53;;;1.13;;
41943;SDS011;27636;52.610;13.244;2023-05-07T13:34:31;2.63;;;1.20;;
41943;SDS011;27636;52.610;13.244;2023-05-07T13:39:35;3.03;;;1.30;;
41943;SDS011;27636;52.610;13.244;2023-05-07T13:44:39;3.10;;;1.35;;
41943;SDS011;27636;52.610;13.244;2023-05-07T13:54:46;4.35;;;1.30;;
41943;SDS011;27636;52.610;13.244;2023-05-07T13:59:52;3.10;;;1.45;;
41943;SDS011;27636;52.610;13.244;2023-05-07T14:04:55;4.45;;;1.50;;
41943;SDS011;27636;52.610;13.244;2023-05-07T14:09:58;6.18;;;2.03;;
41943;SDS011;27636;52.610;13.244;2023-05-07T14:15:04;3.30;;;1.27;;
41943;SDS011;27636;52.610;13.244;2023-05-07T14:20:10;3.58;;;1.40;;
41943;SDS011;27636;52.610;13.244;2023-05-07T14:25:15;3.63;;;1.50;;
41943;SDS011;27636;52.610;13.244;2023-05-07T14:30:25;5.63;;;1.40;;
41943;SDS011;27636;52.610;13.244;2023-05-07T14:35:30;4.97;;;2.67;;
41943;SDS011;27636;52.610;13.244;2023-05-07T14:40:34;3.90;;;1.50;;
41943;SDS011;27636;52.610;13.244;2023-05-07T14:45:38;4.95;;;1.88;;
41943;SDS011;27636;52.610;13.244;2023-05-07T14:50:42;17.08;;;9.93;;
41943;SDS011;27636;52.610;13.244;2023-05-07T14:55:46;8.20;;;4.03;;
41943;SDS011;27636;52.610;13.244;2023-05-07T15:00:51;8.20;;;1.90;;
41943;SDS011;27636;52.610;13.244;2023-05-07T15:05:54;4.90;;;2.03;;
41943;SDS011;27636;52.610;13.244;2023-05-07T15:10:58;5.43;;;1.90;;
41943;SDS011;27636;52.610;13.244;2023-05-07T15:16:03;3.67;;;1.50;;
41943;SDS011;27636;52.610;13.244;2023-05-07T15:26:12;3.58;;;1.50;;
41943;SDS011;27636;52.610;13.244;2023-05-07T15:31:16;4.57;;;1.73;;
41943;SDS011;27636;52.610;13.244;2023-05-07T15:41:24;5.43;;;1.25;;
41943;SDS011;27636;52.610;13.244;2023-05-07T15:46:28;3.88;;;1.50;;
41943;SDS011;27636;52.610;13.244;2023-05-07T15:51:33;3.10;;;1.45;;
41943;SDS011;27636;52.610;13.244;2023-05-07T15:56:37;3.58;;;1.20;;
41943;SDS011;27636;52.610;13.244;2023-05-07T16:01:42;3.95;;;1.75;;
41943;SDS011;27636;52.610;13.244;2023-05-07T16:06:47;2.85;;;1.38;;
41943;SDS011;27636;52.610;13.244;2023-05-07T16:11:51;2.40;;;1.20;;
41943;SDS011;27636;52.610;13.244;2023-05-07T16:16:56;3.10;;;1.40;;
41943;SDS011;27636;52.610;13.244;2023-05-07T16:22:00;3.63;;;1.50;;
41943;SDS011;27636;52.610;13.244;2023-05-07T16:27:03;3.90;;;1.17;;
41943;SDS011;27636;52.610;13.244;2023-05-07T16:32:09;13.45;;;6.00;;
41943;SDS011;27636;52.610;13.244;2023-05-07T16:37:13;5.05;;;1.77;;
41943;SDS011;27636;52.610;13.244;2023-05-07T16:42:16;3.25;;;1.60;;
41943;SDS011;27636;52.610;13.244;2023-05-07T16:47:21;2.83;;;1.40;;
41943;SDS011;27636;52.610;13.244;2023-05-07T16:52:25;2.92;;;1.35;;
41943;SDS011;27636;52.610;13.244;2023-05-07T16:57:29;3.58;;;1.27;;
41943;SDS011;27636;52.610;13.244;2023-05-07T17:02:34;3.70;;;1.58;;
41943;SDS011;27636;52.610;13.244;2023-05-07T17:12:41;4.60;;;1.70;;
41943;SDS011;27636;52.610;13.244;2023-05-07T17:17:46;3.30;;;1.50;;
41943;SDS011;27636;52.610;13.244;2023-05-07T17:22:49;3.30;;;1.25;;
41943;SDS011;27636;52.610;13.244;2023-05-07T17:27:53;3.55;;;1.65;;
41943;SDS011;27636;52.610;13.244;2023-05-07T17:32:58;3.42;;;1.38;;
41943;SDS011;27636;52.610;13.244;2023-05-07T17:38:21;2.75;;;1.30;;
41943;SDS011;27636;52.610;13.244;2023-05-07T17:43:24;4.82;;;1.35;;
41943;SDS011;27636;52.610;13.244;2023-05-07T17:48:29;3.42;;;1.75;;
41943;SDS011;27636;52.610;13.244;2023-05-07T17:53:33;4.20;;;1.63;;
41943;SDS011;27636;52.610;13.244;2023-05-07T17:58:36;2.97;;;1.55;;
41943;SDS011;27636;52.610;13.244;2023-05-07T18:04:00;3.45;;;1.40;;
41943;SDS011;27636;52.610;13.244;2023-05-07T18:09:04;5.78;;;1.55;;
41943;SDS011;27636;52.610;13.244;2023-05-07T18:14:07;5.03;;;1.52;;
41943;SDS011;27636;52.610;13.244;2023-05-07T18:19:12;2.83;;;1.50;;
41943;SDS011;27636;52.610;13.244;2023-05-07T18:24:16;2.90;;;1.42;;
41943;SDS011;27636;52.610;13.244;2023-05-07T18:29:19;5.35;;;1.30;;
41943;SDS011;27636;52.610;13.244;2023-05-07T18:34:24;4.50;;;1.17;;
41943;SDS011;27636;52.610;13.244;2023-05-07T18:39:27;4.68;;;1.20;;
41943;SDS011;27636;52.610;13.244;2023-05-07T18:44:31;4.82;;;1.35;;
41943;SDS011;27636;52.610;13.244;2023-05-07T18:49:36;4.75;;;1.75;;
41943;SDS011;27636;52.610;13.244;2023-05-07T18:54:39;2.42;;;1.30;;
41943;SDS011;27636;52.610;13.244;2023-05-07T18:59:43;2.88;;;1.27;;
41943;SDS011;27636;52.610;13.244;2023-05-07T19:04:48;3.22;;;1.38;;
41943;SDS011;27636;52.610;13.244;2023-05-07T19:15:15;3.28;;;1.45;;
41943;SDS011;27636;52.610;13.244;2023-05-07T19:20:20;5.28;;;1.50;;
41943;SDS011;27636;52.610;13.244;2023-05-07T19:25:23;6.40;;;1.90;;
41943;SDS011;27636;52.610;13.244;2023-05-07T19:30:27;3.75;;;1.40;;
41943;SDS011;27636;52.610;13.244;2023-05-07T19:35:32;3.55;;;1.60;;
41943;SDS011;27636;52.610;13.244;2023-05-07T19:40:37;3.22;;;1.42;;
41943;SDS011;27636;52.610;13.244;2023-05-07T19:45:40;3.85;;;1.52;;
41943;SDS011;27636;52.610;13.244;2023-05-07T19:56:06;4.18;;;1.67;;
41943;SDS011;27636;52.610;13.244;2023-05-07T20:01:11;4.20;;;1.50;;
41943;SDS011;27636;52.610;13.244;2023-05-07T20:06:15;4.13;;;1.40;;
41943;SDS011;27636;52.610;13.244;2023-05-07T20:11:20;4.22;;;1.90;;
41943;SDS011;27636;52.610;13.244;2023-05-07T20:16:23;4.10;;;1.90;;
41943;SDS011;27636;52.610;13.244;2023-05-07T20:21:28;3.88;;;1.63;;
41943;SDS011;27636;52.610;13.244;2023-05-07T20:26:32;7.53;;;2.20;;
41943;SDS011;27636;52.610;13.244;2023-05-07T20:31:35;4.93;;;1.80;;
41943;SDS011;27636;52.610;13.244;2023-05-07T20:36:40;5.55;;;2.58;;
41943;SDS011;27636;52.610;13.244;2023-05-07T20:41:44;4.10;;;1.48;;
41943;SDS011;27636;52.610;13.244;2023-05-07T20:46:47;3.05;;;1.75;;
41943;SDS011;27636;52.610;13.244;2023-05-07T20:51:52;3.60;;;1.75;;
41943;SDS011;27636;52.610;13.244;2023-05-07T20:56:56;4.70;;;2.25;;
41943;SDS011;27636;52.610;13.244;2023-05-07T21:02:01;6.63;;;2.67;;
41943;SDS011;27636;52.610;13.244;2023-05-07T21:07:06;4.88;;;2.38;;
41943;SDS011;27636;52.610;13.244;2023-05-07T21:12:10;4.50;;;2.25;;
41943;SDS011;27636;52.610;13.244;2023-05-07T21:17:14;7.18;;;2.28;;
41943;SDS011;27636;52.610;13.244;2023-05-07T21:22:19;5.75;;;2.50;;
41943;SDS011;27636;52.610;13.244;2023-05-07T21:27:22;6.53;;;2.67;;
41943;SDS011;27636;52.610;13.244;2023-05-07T21:32:26;5.10;;;2.33;;
41943;SDS011;27636;52.610;13.244;2023-05-07T21:37:31;7.70;;;2.85;;
41943;SDS011;27636;52.610;13.244;2023-05-07T21:42:34;6.50;;;2.90;;
41943;SDS011;27636;52.610;13.244;2023-05-07T21:47:38;5.88;;;2.75;;
41943;SDS011;27636;52.610;13.244;2023-05-07T21:52:42;6.20;;;2.65;;
41943;SDS011;27636;52.610;13.244;2023-05-07T21:57:46;7.72;;;3.20;;
41943;SDS011;27636;52.610;13.244;2023-05-07T22:03:06;9.48;;;3.42;;
41943;SDS011;27636;52.610;13.244;2023-05-07T22:08:11;6.75;;;3.55;;
41943;SDS011;27636;52.610;13.244;2023-05-07T22:13:14;5.90;;;3.05;;
41943;SDS011;27636;52.610;13.244;2023-05-07T22:18:19;7.60;;;3.55;;
41943;SDS011;27636;52.610;13.244;2023-05-07T22:23:25;6.30;;;3.53;;
41943;SDS011;27636;52.610;13.244;2023-05-07T22:28:28;6.88;;;3.63;;
41943;SDS011;27636;52.610;13.244;2023-05-07T22:33:32;7.05;;;3.15;;
41943;SDS011;27636;52.610;13.244;2023-05-07T22:38:36;7.38;;;3.53;;
41943;SDS011;27636;52.610;13.244;2023-05-07T22:43:40;9.30;;;3.57;;
41943;SDS011;27636;52.610;13.244;2023-05-07T22:48:43;10.30;;;3.90;;
41943;SDS011;27636;52.610;13.244;2023-05-07T22:53:49;6.93;;;3.45;;
41943;SDS011;27636;52.610;13.244;2023-05-07T22:58:52;6.68;;;3.22;;
41943;SDS011;27636;52.610;13.244;2023-05-07T23:03:55;7.75;;;3.58;;
